CYPC

Paulatuk (Nora Aliqatchialuk Ruben) Airport

Paulatuk, Northwest Territories, Canada
METAR CYPC 212300Z 35005KT 15SM FEW040 FEW180 03/01 A3006 RMK SC1CC1 3.9/0.4/0/LAST STFD OBS/NXT221300UTC SLP181
Observed Flight Rules
Jun-21 @ 23:00 UTC (7 hours ago) Visual Flight Rules
Wind Visibility Clouds
350° at 5 knots 15 miles
  • Few at 4,000' AGL
  • Few at 18,000' AGL
Temperatures Readings
Current 3°C / 37°F
Dewpoint 1°C / 34°F
Humidity 87%
Altimeter 30.06" Hg
Pressure 1018.1 hPa
Elevation 6
METAR CYPC 212300Z 35005KT 15SM FEW040 FEW180 03/01 A3006 RMK SC1CC1 3.9/0.4/0/LAST STFD OBS/NXT221300UTC SLP181
Observed Flight Rules
Jun-21 @ 23:00 UTC
(7 hours ago)
VFR
Wind Visibility
350° at 5 knots 15 miles
Clouds
  • Few at 4,000' AGL
  • Few at 18,000' AGL
Temperature Dewpoint
3°C / 37°F 1°C / 34°F
Humidity Altimeter Pressure
87% 30.06" Hg 1018.1 hPa